createdAt,value
2019-01-03T17:13:43.284Z,2.80
2019-01-03T17:16:15.991Z,3.10
2019-01-03T17:18:48.345Z,3.57
2019-01-03T17:21:20.491Z,3.37
2019-01-03T17:23:52.202Z,3.70
2019-01-03T17:26:23.621Z,3.37
2019-01-03T17:28:54.473Z,3.93
2019-01-03T17:31:26.998Z,3.60
2019-01-03T17:34:02.869Z,3.93
2019-01-03T17:36:34.736Z,4.30
2019-01-03T17:39:07.800Z,4.17
2019-01-03T17:41:38.792Z,4.30
2019-01-03T17:44:13.403Z,3.90
2019-01-03T17:46:47.485Z,3.87
2019-01-03T17:49:23.180Z,4.00
2019-01-03T17:52:00.267Z,4.37
2019-01-03T17:54:32.204Z,3.80
2019-01-03T17:57:05.544Z,3.80
2019-01-03T17:59:37.115Z,4.10
2019-01-03T18:02:11.464Z,4.30
2019-01-03T18:04:45.009Z,4.00
2019-01-03T18:07:15.294Z,3.73
2019-01-03T18:09:48.827Z,3.77
2019-01-03T18:12:19.975Z,4.00
2019-01-03T18:14:52.718Z,3.90
2019-01-03T18:17:25.373Z,4.10
2019-01-03T18:19:57.399Z,3.80
2019-01-03T18:22:28.400Z,4.40
2019-01-03T18:25:01.978Z,4.23
2019-01-03T18:27:34.628Z,4.27
2019-01-03T18:30:05.816Z,4.07
2019-01-03T18:32:36.428Z,4.00
2019-01-03T18:35:08.964Z,4.10
2019-01-03T18:37:41.276Z,4.37
2019-01-03T18:40:16.356Z,4.07
2019-01-03T18:42:50.756Z,4.00
2019-01-03T18:45:27.388Z,3.93
2019-01-03T18:47:58.292Z,4.30
2019-01-03T18:50:29.703Z,4.23
2019-01-03T18:53:02.522Z,4.13
2019-01-03T18:55:35.020Z,4.00
2019-01-03T18:58:11.372Z,4.37
2019-01-03T19:00:42.639Z,4.87
2019-01-03T19:03:13.336Z,4.50
2019-01-03T19:05:44.677Z,4.80
2019-01-03T19:08:15.307Z,4.43
2019-01-03T19:10:45.942Z,4.40
2019-01-03T19:13:19.883Z,4.37
2019-01-03T19:15:50.898Z,3.80
2019-01-03T19:18:23.471Z,4.10
2019-01-03T19:20:54.406Z,4.03
2019-01-03T19:23:26.244Z,4.17
2019-01-03T19:25:58.879Z,3.80
2019-01-03T19:28:30.453Z,4.10
2019-01-03T19:31:02.156Z,4.40
2019-01-03T19:33:33.361Z,4.87
2019-01-03T19:36:06.541Z,5.20
2019-01-03T19:38:39.696Z,5.00
2019-01-03T19:41:11.731Z,5.23
2019-01-03T19:43:45.298Z,5.43
2019-01-03T19:46:17.498Z,5.37
2019-01-03T19:48:52.520Z,5.37
2019-01-03T19:51:23.828Z,5.33
2019-01-03T19:53:56.177Z,5.03
2019-01-03T19:56:29.267Z,5.30
2019-01-03T19:59:06.272Z,4.67
2019-01-03T20:01:43.295Z,6.00
2019-01-03T20:04:15.143Z,5.43
2019-01-03T20:06:47.245Z,6.00
2019-01-03T20:09:18.886Z,5.23
2019-01-03T20:11:50.086Z,5.87
2019-01-03T20:14:23.388Z,5.43
2019-01-03T20:16:54.801Z,5.80
2019-01-03T20:19:25.475Z,6.07
2019-01-03T20:21:57.208Z,6.13
2019-01-03T20:24:28.771Z,5.97
2019-01-03T20:27:00.514Z,6.20
2019-01-03T20:29:31.576Z,6.67
2019-01-03T20:32:02.283Z,6.70
2019-01-03T20:34:32.611Z,6.57
2019-01-03T20:37:06.822Z,7.40
2019-01-03T20:39:38.268Z,7.07
2019-01-03T20:42:12.988Z,7.10
2019-01-03T20:44:45.261Z,7.07
2019-01-03T20:47:16.693Z,7.13
2019-01-03T20:49:47.475Z,8.07
2019-01-03T20:52:20.145Z,7.80
2019-01-03T20:54:52.306Z,7.63
2019-01-03T20:57:24.384Z,8.63
2019-01-03T20:59:57.288Z,7.83
2019-01-03T21:02:29.029Z,7.70
2019-01-03T21:05:01.179Z,8.13
2019-01-03T21:07:33.840Z,8.20
2019-01-03T21:10:05.778Z,8.57
2019-01-03T21:12:36.295Z,8.67
2019-01-03T21:15:10.970Z,8.47
2019-01-03T21:17:42.574Z,8.17
2019-01-03T21:20:16.075Z,8.00
2019-01-03T21:22:46.448Z,8.20
2019-01-03T21:25:19.428Z,7.80
2019-01-03T21:27:51.482Z,8.23
2019-01-03T21:30:25.040Z,7.83
2019-01-03T21:32:57.734Z,8.50
2019-01-03T21:35:32.251Z,8.30
2019-01-03T21:38:03.040Z,8.20
2019-01-03T21:40:35.889Z,8.57
2019-01-03T21:43:06.199Z,8.60
2019-01-03T21:45:36.550Z,9.00
2019-01-03T21:48:08.286Z,8.83
2019-01-03T21:50:39.492Z,9.60
2019-01-03T21:53:09.783Z,9.33
2019-01-03T21:55:41.570Z,8.43
2019-01-03T21:58:14.205Z,8.50
2019-01-03T22:00:46.242Z,8.80
2019-01-03T22:03:18.237Z,9.27
2019-01-03T22:05:51.074Z,8.60
2019-01-03T22:08:22.418Z,9.00
2019-01-03T22:10:59.988Z,9.13
2019-01-03T22:13:32.634Z,9.27
2019-01-03T22:16:05.072Z,9.50
2019-01-03T22:18:37.505Z,9.53
2019-01-03T22:21:08.614Z,9.43
2019-01-03T22:23:39.494Z,10.00
2019-01-03T22:26:10.508Z,9.53
2019-01-03T22:28:41.827Z,10.00
2019-01-03T22:31:12.939Z,9.83
2019-01-03T22:33:44.294Z,9.77
2019-01-03T22:36:17.105Z,10.50
2019-01-03T22:38:47.976Z,10.37
2019-01-03T22:41:18.899Z,10.20
2019-01-03T22:43:50.475Z,10.47
2019-01-03T22:46:22.833Z,10.03
2019-01-03T22:48:54.335Z,9.67
2019-01-03T22:51:27.803Z,10.83
2019-01-03T22:53:59.756Z,10.27
2019-01-03T22:56:31.525Z,10.43
2019-01-03T22:59:03.895Z,10.87
2019-01-03T23:01:36.235Z,10.10
2019-01-03T23:04:10.533Z,11.50
2019-01-03T23:06:41.124Z,10.93
2019-01-03T23:09:15.242Z,10.90
2019-01-03T23:11:47.787Z,11.20
2019-01-03T23:14:19.229Z,11.90
2019-01-03T23:16:52.936Z,11.47
2019-01-03T23:19:23.696Z,11.40
2019-01-03T23:21:56.372Z,11.73
2019-01-03T23:24:33.267Z,11.30
2019-01-03T23:27:04.123Z,11.80
2019-01-03T23:29:36.275Z,10.37
2019-01-03T23:32:08.034Z,11.67
2019-01-03T23:34:41.435Z,11.73
2019-01-03T23:37:12.444Z,10.93
2019-01-03T23:39:44.016Z,11.13
2019-01-03T23:42:15.828Z,11.10
2019-01-03T23:45:15.963Z,11.77
2019-01-03T23:47:49.796Z,11.87
2019-01-03T23:50:24.704Z,11.33
2019-01-03T23:52:56.945Z,11.30
2019-01-03T23:55:29.743Z,11.60
2019-01-03T23:58:00.746Z,12.00
